sensor_id;sensor_type;location;lat;lon;timestamp;pressure;altitude;pressure_sealevel;temperature
13304;BMP280;6720;51.958;4.540;2022-11-09T00:00:33;100185.78;;;14.85
13304;BMP280;6720;51.958;4.540;2022-11-09T00:02:58;100192.50;;;14.92
13304;BMP280;6720;51.958;4.540;2022-11-09T00:05:23;100201.47;;;14.88
13304;BMP280;6720;51.958;4.540;2022-11-09T00:07:49;100195.56;;;14.81
13304;BMP280;6720;51.958;4.540;2022-11-09T00:10:14;100198.38;;;14.78
13304;BMP280;6720;51.958;4.540;2022-11-09T00:12:39;100198.44;;;14.77
13304;BMP280;6720;51.958;4.540;2022-11-09T00:15:05;100187.16;;;14.73
13304;BMP280;6720;51.958;4.540;2022-11-09T00:17:30;100187.09;;;14.74
13304;BMP280;6720;51.958;4.540;2022-11-09T00:19:56;100190.84;;;14.69
13304;BMP280;6720;51.958;4.540;2022-11-09T00:22:21;100196.88;;;14.73
13304;BMP280;6720;51.958;4.540;2022-11-09T00:24:46;100175.53;;;14.58
13304;BMP280;6720;51.958;4.540;2022-11-09T00:27:12;100178.28;;;14.55
13304;BMP280;6720;51.958;4.540;2022-11-09T00:29:37;100175.59;;;14.57
13304;BMP280;6720;51.958;4.540;2022-11-09T00:32:02;100185.13;;;14.59
13304;BMP280;6720;51.958;4.540;2022-11-09T00:34:28;100184.34;;;14.57
13304;BMP280;6720;51.958;4.540;2022-11-09T00:36:53;100189.81;;;14.53
13304;BMP280;6720;51.958;4.540;2022-11-09T00:39:18;100192.38;;;14.54
13304;BMP280;6720;51.958;4.540;2022-11-09T00:41:44;100191.41;;;14.57
13304;BMP280;6720;51.958;4.540;2022-11-09T00:44:09;100187.38;;;14.48
13304;BMP280;6720;51.958;4.540;2022-11-09T00:46:35;100188.25;;;14.49
13304;BMP280;6720;51.958;4.540;2022-11-09T00:49:17;100196.44;;;14.41
13304;BMP280;6720;51.958;4.540;2022-11-09T00:52:07;100195.41;;;14.45
13304;BMP280;6720;51.958;4.540;2022-11-09T00:54:32;100189.34;;;14.43
13304;BMP280;6720;51.958;4.540;2022-11-09T00:57:16;100194.03;;;14.37
13304;BMP280;6720;51.958;4.540;2022-11-09T00:59:43;100191.47;;;14.35
13304;BMP280;6720;51.958;4.540;2022-11-09T01:02:09;100184.88;;;14.45
13304;BMP280;6720;51.958;4.540;2022-11-09T01:04:34;100187.84;;;14.38
13304;BMP280;6720;51.958;4.540;2022-11-09T01:06:59;100186.19;;;14.35
13304;BMP280;6720;51.958;4.540;2022-11-09T01:09:25;100203.88;;;14.32
13304;BMP280;6720;51.958;4.540;2022-11-09T01:12:05;100191.47;;;14.35
13304;BMP280;6720;51.958;4.540;2022-11-09T01:14:30;100194.03;;;14.37
13304;BMP280;6720;51.958;4.540;2022-11-09T01:16:56;100193.88;;;14.40
13304;BMP280;6720;51.958;4.540;2022-11-09T01:19:21;100193.28;;;14.33
13304;BMP280;6720;51.958;4.540;2022-11-09T01:21:46;100191.47;;;14.35
13304;BMP280;6720;51.958;4.540;2022-11-09T01:24:12;100192.06;;;14.42
13304;BMP280;6720;51.958;4.540;2022-11-09T01:26:40;100192.75;;;14.45
13304;BMP280;6720;51.958;4.540;2022-11-09T01:29:06;100191.19;;;14.41
13304;BMP280;6720;51.958;4.540;2022-11-09T01:31:31;100193.88;;;14.40
13304;BMP280;6720;51.958;4.540;2022-11-09T01:33:56;100211.41;;;14.41
13304;BMP280;6720;51.958;4.540;2022-11-09T01:36:22;100200.41;;;14.31
13304;BMP280;6720;51.958;4.540;2022-11-09T01:38:48;100210.09;;;14.31
13304;BMP280;6720;51.958;4.540;2022-11-09T01:41:20;100202.53;;;14.23
13304;BMP280;6720;51.958;4.540;2022-11-09T01:46:49;100190.19;;;14.24
13304;BMP280;6720;51.958;4.540;2022-11-09T01:52:13;100190.13;;;14.25
13304;BMP280;6720;51.958;4.540;2022-11-09T01:54:43;100193.84;;;14.20
13304;BMP280;6720;51.958;4.540;2022-11-09T01:57:18;100192.69;;;14.27
13304;BMP280;6720;51.958;4.540;2022-11-09T01:59:49;100211.31;;;14.22
13304;BMP280;6720;51.958;4.540;2022-11-09T02:02:16;100206.03;;;14.22
13304;BMP280;6720;51.958;4.540;2022-11-09T02:04:49;100194.72;;;14.20
13304;BMP280;6720;51.958;4.540;2022-11-09T02:07:17;100215.69;;;14.23
13304;BMP280;6720;51.958;4.540;2022-11-09T02:09:48;100199.88;;;14.23
13304;BMP280;6720;51.958;4.540;2022-11-09T02:12:16;100195.28;;;14.28
13304;BMP280;6720;51.958;4.540;2022-11-09T02:14:43;100210.19;;;14.28
13304;BMP280;6720;51.958;4.540;2022-11-09T02:17:09;100213.81;;;14.25
13304;BMP280;6720;51.958;4.540;2022-11-09T02:19:36;100206.78;;;14.26
13304;BMP280;6720;51.958;4.540;2022-11-09T02:22:01;100194.63;;;14.23
13304;BMP280;6720;51.958;4.540;2022-11-09T02:24:27;100206.16;;;14.19
13304;BMP280;6720;51.958;4.540;2022-11-09T02:26:53;100213.25;;;14.17
13304;BMP280;6720;51.958;4.540;2022-11-09T02:29:21;100227.13;;;14.21
13304;BMP280;6720;51.958;4.540;2022-11-09T02:31:51;100232.63;;;14.16
13304;BMP280;6720;51.958;4.540;2022-11-09T02:34:19;100228.19;;;14.17
13304;BMP280;6720;51.958;4.540;2022-11-09T02:36:44;100226.47;;;14.16
13304;BMP280;6720;51.958;4.540;2022-11-09T02:39:10;100222.44;;;14.07
13304;BMP280;6720;51.958;4.540;2022-11-09T02:41:43;100224.97;;;14.10
13304;BMP280;6720;51.958;4.540;2022-11-09T02:44:10;100230.16;;;14.12
13304;BMP280;6720;51.958;4.540;2022-11-09T02:46:36;100216.28;;;14.08
13304;BMP280;6720;51.958;4.540;2022-11-09T02:49:03;100216.34;;;14.07
13304;BMP280;6720;51.958;4.540;2022-11-09T02:51:28;100214.13;;;13.96
13304;BMP280;6720;51.958;4.540;2022-11-09T02:53:53;100220.13;;;14.00
13304;BMP280;6720;51.958;4.540;2022-11-09T02:56:19;100218.50;;;13.97
13304;BMP280;6720;51.958;4.540;2022-11-09T02:58:44;100218.66;;;13.93
13304;BMP280;6720;51.958;4.540;2022-11-09T03:01:09;100217.56;;;13.98
13304;BMP280;6720;51.958;4.540;2022-11-09T03:03:35;100212.31;;;13.98
13304;BMP280;6720;51.958;4.540;2022-11-09T03:06:01;100221.97;;;13.98
13304;BMP280;6720;51.958;4.540;2022-11-09T03:08:26;100226.50;;;13.94
13304;BMP280;6720;51.958;4.540;2022-11-09T03:10:52;100221.47;;;13.88
13304;BMP280;6720;51.958;4.540;2022-11-09T03:13:17;100229.38;;;13.88
13304;BMP280;6720;51.958;4.540;2022-11-09T03:15:42;100237.53;;;13.82
13304;BMP280;6720;51.958;4.540;2022-11-09T03:18:08;100241.13;;;13.80
13304;BMP280;6720;51.958;4.540;2022-11-09T03:20:33;100249.25;;;13.74
13304;BMP280;6720;51.958;4.540;2022-11-09T03:22:59;100239.94;;;13.65
13304;BMP280;6720;51.958;4.540;2022-11-09T03:25:25;100251.84;;;13.75
13304;BMP280;6720;51.958;4.540;2022-11-09T03:27:59;100252.06;;;13.69
13304;BMP280;6720;51.958;4.540;2022-11-09T03:30:24;100248.75;;;13.64
13304;BMP280;6720;51.958;4.540;2022-11-09T03:32:50;100264.31;;;13.70
13304;BMP280;6720;51.958;4.540;2022-11-09T03:35:15;100269.56;;;13.70
13304;BMP280;6720;51.958;4.540;2022-11-09T03:37:41;100266.19;;;13.67
13304;BMP280;6720;51.958;4.540;2022-11-09T03:40:06;100269.81;;;13.64
13304;BMP280;6720;51.958;4.540;2022-11-09T03:42:32;100275.97;;;13.63
13304;BMP280;6720;51.958;4.540;2022-11-09T03:44:57;100276.81;;;13.64
13304;BMP280;6720;51.958;4.540;2022-11-09T03:47:23;100274.94;;;13.67
13304;BMP280;6720;51.958;4.540;2022-11-09T03:49:48;100272.38;;;13.66
13304;BMP280;6720;51.958;4.540;2022-11-09T03:52:13;100273.34;;;13.63
13304;BMP280;6720;51.958;4.540;2022-11-09T03:54:39;100279.50;;;13.62
13304;BMP280;6720;51.958;4.540;2022-11-09T03:57:04;100299.88;;;13.57
13304;BMP280;6720;51.958;4.540;2022-11-09T03:59:30;100286.63;;;13.60
13304;BMP280;6720;51.958;4.540;2022-11-09T04:01:56;100284.91;;;13.59
13304;BMP280;6720;51.958;4.540;2022-11-09T04:04:21;100292.91;;;13.56
13304;BMP280;6720;51.958;4.540;2022-11-09T04:06:46;100294.50;;;13.60
13304;BMP280;6720;51.958;4.540;2022-11-09T04:09:12;100291.06;;;13.58
13304;BMP280;6720;51.958;4.540;2022-11-09T04:11:37;100306.63;;;13.64
13304;BMP280;6720;51.958;4.540;2022-11-09T04:14:03;100297.81;;;13.65
13304;BMP280;6720;51.958;4.540;2022-11-09T04:16:28;100286.66;;;13.59
13304;BMP280;6720;51.958;4.540;2022-11-09T04:18:53;100297.53;;;13.73
13304;BMP280;6720;51.958;4.540;2022-11-09T04:21:19;100303.22;;;13.61
13304;BMP280;6720;51.958;4.540;2022-11-09T04:23:46;100311.78;;;13.67
13304;BMP280;6720;51.958;4.540;2022-11-09T04:26:12;100297.91;;;13.62
13304;BMP280;6720;51.958;4.540;2022-11-09T04:28:37;100296.00;;;13.67
13304;BMP280;6720;51.958;4.540;2022-11-09T04:31:02;100286.63;;;13.60
13304;BMP280;6720;51.958;4.540;2022-11-09T04:33:28;100301.47;;;13.61
13304;BMP280;6720;51.958;4.540;2022-11-09T04:35:53;100301.56;;;13.58
13304;BMP280;6720;51.958;4.540;2022-11-09T04:38:19;100312.28;;;13.54
13304;BMP280;6720;51.958;4.540;2022-11-09T04:40:44;100305.53;;;13.47
13304;BMP280;6720;51.958;4.540;2022-11-09T04:43:12;100304.22;;;13.58
13304;BMP280;6720;51.958;4.540;2022-11-09T04:45:38;100314.69;;;13.60
13304;BMP280;6720;51.958;4.540;2022-11-09T04:48:05;100315.66;;;13.57
13304;BMP280;6720;51.958;4.540;2022-11-09T04:50:32;100321.72;;;13.59
13304;BMP280;6720;51.958;4.540;2022-11-09T04:53:18;100336.47;;;13.63
13304;BMP280;6720;51.958;4.540;2022-11-09T04:55:43;100326.22;;;13.56
13304;BMP280;6720;51.958;4.540;2022-11-09T04:58:09;100316.97;;;13.46
13304;BMP280;6720;51.958;4.540;2022-11-09T05:00:35;100308.53;;;13.36
13304;BMP280;6720;51.958;4.540;2022-11-09T05:03:02;100310.22;;;13.39
13304;BMP280;6720;51.958;4.540;2022-11-09T05:05:28;100307.09;;;13.29
13304;BMP280;6720;51.958;4.540;2022-11-09T05:07:54;100304.94;;;13.16
13304;BMP280;6720;51.958;4.540;2022-11-09T05:10:19;100305.94;;;13.12
13304;BMP280;6720;51.958;4.540;2022-11-09T05:12:45;100296.31;;;13.12
13304;BMP280;6720;51.958;4.540;2022-11-09T05:15:10;100292.53;;;12.95
13304;BMP280;6720;51.958;4.540;2022-11-09T05:17:35;100307.25;;;13.00
13304;BMP280;6720;51.958;4.540;2022-11-09T05:20:01;100302.00;;;13.00
13304;BMP280;6720;51.958;4.540;2022-11-09T05:22:53;100291.91;;;12.88
13304;BMP280;6720;51.958;4.540;2022-11-09T05:26:01;100306.44;;;12.97
13304;BMP280;6720;51.958;4.540;2022-11-09T05:28:51;100302.16;;;12.94
13304;BMP280;6720;51.958;4.540;2022-11-09T05:31:48;100305.13;;;12.85
13304;BMP280;6720;51.958;4.540;2022-11-09T05:34:46;100316.41;;;12.87
13304;BMP280;6720;51.958;4.540;2022-11-09T05:37:52;100306.28;;;12.77
13304;BMP280;6720;51.958;4.540;2022-11-09T05:40:52;100310.59;;;12.79
13304;BMP280;6720;51.958;4.540;2022-11-09T05:43:46;100314.03;;;12.81
13304;BMP280;6720;51.958;4.540;2022-11-09T06:00:51;100322.09;;;12.75
13304;BMP280;6720;51.958;4.540;2022-11-09T06:03:27;100313.34;;;12.76
13304;BMP280;6720;51.958;4.540;2022-11-09T06:05:53;100329.09;;;12.76
13304;BMP280;6720;51.958;4.540;2022-11-09T06:08:18;100323.94;;;12.73
13304;BMP280;6720;51.958;4.540;2022-11-09T06:10:44;100324.69;;;12.77
13304;BMP280;6720;51.958;4.540;2022-11-09T06:13:09;100318.94;;;12.66
13304;BMP280;6720;51.958;4.540;2022-11-09T06:15:35;100322.00;;;12.78
13304;BMP280;6720;51.958;4.540;2022-11-09T06:18:01;100320.41;;;12.74
13304;BMP280;6720;51.958;4.540;2022-11-09T06:20:27;100305.66;;;12.70
13304;BMP280;6720;51.958;4.540;2022-11-09T06:22:57;100322.78;;;12.82
13304;BMP280;6720;51.958;4.540;2022-11-09T06:25:23;100323.63;;;12.82
13304;BMP280;6720;51.958;4.540;2022-11-09T06:27:48;100324.53;;;12.81
13304;BMP280;6720;51.958;4.540;2022-11-09T06:30:14;100330.56;;;12.83
13304;BMP280;6720;51.958;4.540;2022-11-09T06:32:40;100321.91;;;12.81
13304;BMP280;6720;51.958;4.540;2022-11-09T06:35:06;100325.22;;;12.86
13304;BMP280;6720;51.958;4.540;2022-11-09T06:37:32;100325.44;;;12.80
13304;BMP280;6720;51.958;4.540;2022-11-09T06:39:57;100321.81;;;12.84
13304;BMP280;6720;51.958;4.540;2022-11-09T06:42:22;100337.53;;;12.86
13304;BMP280;6720;51.958;4.540;2022-11-09T06:44:48;100330.53;;;12.85
13304;BMP280;6720;51.958;4.540;2022-11-09T06:47:13;100341.84;;;12.87
13304;BMP280;6720;51.958;4.540;2022-11-09T06:49:39;100336.66;;;12.85
13304;BMP280;6720;51.958;4.540;2022-11-09T06:52:04;100343.50;;;12.89
13304;BMP280;6720;51.958;4.540;2022-11-09T06:54:30;100323.72;;;12.79
13304;BMP280;6720;51.958;4.540;2022-11-09T06:56:56;100349.59;;;12.91
13304;BMP280;6720;51.958;4.540;2022-11-09T06:59:22;100353.09;;;12.90
13304;BMP280;6720;51.958;4.540;2022-11-09T07:01:47;100345.41;;;12.86
13304;BMP280;6720;51.958;4.540;2022-11-09T07:04:13;100348.81;;;12.88
13304;BMP280;6720;51.958;4.540;2022-11-09T07:06:39;100348.06;;;12.84
13304;BMP280;6720;51.958;4.540;2022-11-09T07:09:05;100341.91;;;12.85
13304;BMP280;6720;51.958;4.540;2022-11-09T07:11:31;100337.53;;;12.86
13304;BMP280;6720;51.958;4.540;2022-11-09T07:13:56;100347.00;;;12.90
13304;BMP280;6720;51.958;4.540;2022-11-09T07:16:21;100332.25;;;12.86
13304;BMP280;6720;51.958;4.540;2022-11-09T07:18:47;100356.75;;;12.86
13304;BMP280;6720;51.958;4.540;2022-11-09T07:21:12;100346.47;;;12.80
13304;BMP280;6720;51.958;4.540;2022-11-09T07:23:38;100350.53;;;12.89
13304;BMP280;6720;51.958;4.540;2022-11-09T07:26:03;100353.69;;;13.00
13304;BMP280;6720;51.958;4.540;2022-11-09T07:28:29;100343.56;;;12.88
13304;BMP280;6720;51.958;4.540;2022-11-09T07:30:56;100350.22;;;12.99
13304;BMP280;6720;51.958;4.540;2022-11-09T07:33:22;100357.97;;;13.02
13304;BMP280;6720;51.958;4.540;2022-11-09T07:35:49;100361.50;;;13.01
13304;BMP280;6720;51.958;4.540;2022-11-09T07:38:14;100365.06;;;13.00
13304;BMP280;6720;51.958;4.540;2022-11-09T07:40:40;100366.88;;;12.98
13304;BMP280;6720;51.958;4.540;2022-11-09T07:43:06;100369.69;;;12.92
13304;BMP280;6720;51.958;4.540;2022-11-09T07:45:33;100374.69;;;13.00
13304;BMP280;6720;51.958;4.540;2022-11-09T07:48:01;100367.78;;;12.96
13304;BMP280;6720;51.958;4.540;2022-11-09T07:50:28;100377.28;;;13.01
13304;BMP280;6720;51.958;4.540;2022-11-09T07:52:55;100359.31;;;12.88
13304;BMP280;6720;51.958;4.540;2022-11-09T07:55:20;100380.69;;;13.05
13304;BMP280;6720;51.958;4.540;2022-11-09T07:57:46;100389.41;;;13.05
13304;BMP280;6720;51.958;4.540;2022-11-09T08:00:12;100392.75;;;13.10
13304;BMP280;6720;51.958;4.540;2022-11-09T08:02:37;100399.81;;;13.08
13304;BMP280;6720;51.958;4.540;2022-11-09T08:05:03;100381.41;;;13.08
13304;BMP280;6720;51.958;4.540;2022-11-09T08:07:28;100397.88;;;13.13
13304;BMP280;6720;51.958;4.540;2022-11-09T08:09:54;100404.75;;;13.17
13304;BMP280;6720;51.958;4.540;2022-11-09T08:12:19;100401.75;;;13.28
13304;BMP280;6720;51.958;4.540;2022-11-09T08:14:45;100399.09;;;13.29
13304;BMP280;6720;51.958;4.540;2022-11-09T08:17:10;100402.13;;;13.42
13304;BMP280;6720;51.958;4.540;2022-11-09T08:19:35;100409.06;;;13.44
13304;BMP280;6720;51.958;4.540;2022-11-09T08:22:01;100411.22;;;13.33
13304;BMP280;6720;51.958;4.540;2022-11-09T08:24:26;100412.59;;;13.43
13304;BMP280;6720;51.958;4.540;2022-11-09T08:26:51;100420.38;;;13.46
13304;BMP280;6720;51.958;4.540;2022-11-09T08:29:17;100400.47;;;13.39
13304;BMP280;6720;51.958;4.540;2022-11-09T08:31:42;100418.81;;;13.41
13304;BMP280;6720;51.958;4.540;2022-11-09T08:34:11;100422.03;;;13.49
13304;BMP280;6720;51.958;4.540;2022-11-09T08:36:38;100414.19;;;13.47
13304;BMP280;6720;51.958;4.540;2022-11-09T08:39:04;100424.41;;;13.56
13304;BMP280;6720;51.958;4.540;2022-11-09T08:41:29;100422.69;;;13.55
13304;BMP280;6720;51.958;4.540;2022-11-09T08:43:55;100422.91;;;13.49
13304;BMP280;6720;51.958;4.540;2022-11-09T08:46:20;100430.34;;;13.61
13304;BMP280;6720;51.958;4.540;2022-11-09T08:48:45;100435.66;;;13.60
13304;BMP280;6720;51.958;4.540;2022-11-09T08:51:11;100422.03;;;13.49
13304;BMP280;6720;51.958;4.540;2022-11-09T08:53:36;100424.50;;;13.53
13304;BMP280;6720;51.958;4.540;2022-11-09T08:56:05;100439.16;;;13.60
13304;BMP280;6720;51.958;4.540;2022-11-09T08:58:31;100396.25;;;13.58
13304;BMP280;6720;51.958;4.540;2022-11-09T09:00:56;100431.56;;;13.76
13304;BMP280;6720;51.958;4.540;2022-11-09T09:03:22;100440.44;;;13.96
13304;BMP280;6720;51.958;4.540;2022-11-09T09:05:47;100423.50;;;13.80
13304;BMP280;6720;51.958;4.540;2022-11-09T09:08:12;100432.22;;;13.82
13304;BMP280;6720;51.958;4.540;2022-11-09T09:10:40;100424.31;;;13.82
13304;BMP280;6720;51.958;4.540;2022-11-09T09:13:06;100413.75;;;13.84
13304;BMP280;6720;51.958;4.540;2022-11-09T09:15:31;100438.97;;;13.89
13304;BMP280;6720;51.958;4.540;2022-11-09T09:18:01;100432.41;;;13.76
13304;BMP280;6720;51.958;4.540;2022-11-09T09:20:27;100446.25;;;13.81
13304;BMP280;6720;51.958;4.540;2022-11-09T09:22:53;100431.28;;;13.83
13304;BMP280;6720;51.958;4.540;2022-11-09T09:25:18;100439.28;;;13.80
13304;BMP280;6720;51.958;4.540;2022-11-09T09:27:43;100426.94;;;13.82
13304;BMP280;6720;51.958;4.540;2022-11-09T09:30:09;100427.13;;;14.01
13304;BMP280;6720;51.958;4.540;2022-11-09T09:32:35;100431.41;;;14.03
13304;BMP280;6720;51.958;4.540;2022-11-09T09:35:01;100431.19;;;14.09
13304;BMP280;6720;51.958;4.540;2022-11-09T09:37:26;100441.66;;;14.11
13304;BMP280;6720;51.958;4.540;2022-11-09T09:39:51;100436.44;;;14.09
13304;BMP280;6720;51.958;4.540;2022-11-09T09:42:19;100433.19;;;14.03
13304;BMP280;6720;51.958;4.540;2022-11-09T09:45:14;100440.31;;;13.99
13304;BMP280;6720;51.958;4.540;2022-11-09T09:50:21;100427.41;;;14.16
13304;BMP280;6720;51.958;4.540;2022-11-09T09:55:39;100481.66;;;14.66
13304;BMP280;6720;51.958;4.540;2022-11-09T09:58:10;100464.72;;;14.50
13304;BMP280;6720;51.958;4.540;2022-11-09T10:00:37;100466.91;;;14.39
13304;BMP280;6720;51.958;4.540;2022-11-09T10:03:04;100472.28;;;14.36
13304;BMP280;6720;51.958;4.540;2022-11-09T10:14:00;100492.13;;;14.23
13304;BMP280;6720;51.958;4.540;2022-11-09T10:16:43;100499.28;;;14.18
13304;BMP280;6720;51.958;4.540;2022-11-09T10:19:39;100506.50;;;14.13
13304;BMP280;6720;51.958;4.540;2022-11-09T10:22:54;100507.38;;;13.89
13304;BMP280;6720;51.958;4.540;2022-11-09T10:25:20;100486.72;;;14.02
13304;BMP280;6720;51.958;4.540;2022-11-09T10:27:53;100488.47;;;14.03
13304;BMP280;6720;51.958;4.540;2022-11-09T10:30:20;100489.41;;;14.00
13304;BMP280;6720;51.958;4.540;2022-11-09T10:32:55;100486.00;;;13.98
13304;BMP280;6720;51.958;4.540;2022-11-09T10:35:23;100485.44;;;14.13
13304;BMP280;6720;51.958;4.540;2022-11-09T10:37:51;100479.84;;;14.22
13304;BMP280;6720;51.958;4.540;2022-11-09T10:40:41;100486.91;;;14.66
13304;BMP280;6720;51.958;4.540;2022-11-09T10:43:11;100483.44;;;14.88
13304;BMP280;6720;51.958;4.540;2022-11-09T10:45:39;100474.66;;;15.09
13304;BMP280;6720;51.958;4.540;2022-11-09T10:48:07;100478.47;;;15.23
13304;BMP280;6720;51.958;4.540;2022-11-09T10:50:47;100505.44;;;15.08
13304;BMP280;6720;51.958;4.540;2022-11-09T10:53:22;100503.59;;;14.89
13304;BMP280;6720;51.958;4.540;2022-11-09T10:58:34;100483.94;;;14.52
13304;BMP280;6720;51.958;4.540;2022-11-09T11:01:02;100484.41;;;14.40
13304;BMP280;6720;51.958;4.540;2022-11-09T11:03:33;100466.09;;;14.37
13304;BMP280;6720;51.958;4.540;2022-11-09T11:06:13;100474.38;;;14.28
13304;BMP280;6720;51.958;4.540;2022-11-09T11:08:41;100476.59;;;14.14
13304;BMP280;6720;51.958;4.540;2022-11-09T11:11:29;100490.34;;;13.99
13304;BMP280;6720;51.958;4.540;2022-11-09T11:16:34;100492.53;;;13.87
13304;BMP280;6720;51.958;4.540;2022-11-09T11:19:01;100498.28;;;13.73
13304;BMP280;6720;51.958;4.540;2022-11-09T11:21:27;100499.91;;;13.77
13304;BMP280;6720;51.958;4.540;2022-11-09T11:24:16;100509.31;;;13.60
13304;BMP280;6720;51.958;4.540;2022-11-09T11:26:55;100522.75;;;13.77
13304;BMP280;6720;51.958;4.540;2022-11-09T11:29:27;100514.88;;;14.00
13304;BMP280;6720;51.958;4.540;2022-11-09T11:31:53;100527.03;;;14.28
13304;BMP280;6720;51.958;4.540;2022-11-09T11:34:18;100522.91;;;14.44
13304;BMP280;6720;51.958;4.540;2022-11-09T11:39:54;100510.09;;;15.23
13304;BMP280;6720;51.958;4.540;2022-11-09T11:45:40;100527.59;;;16.26
13304;BMP280;6720;51.958;4.540;2022-11-09T11:51:17;100529.47;;;16.04
13304;BMP280;6720;51.958;4.540;2022-11-09T11:59:05;100523.22;;;16.45
13304;BMP280;6720;51.958;4.540;2022-11-09T12:04:59;100516.09;;;16.47
13304;BMP280;6720;51.958;4.540;2022-11-09T12:13:05;100514.72;;;15.80
13304;BMP280;6720;51.958;4.540;2022-11-09T12:15:42;100510.94;;;16.81
13304;BMP280;6720;51.958;4.540;2022-11-09T12:18:14;100499.84;;;16.36
13304;BMP280;6720;51.958;4.540;2022-11-09T12:26:02;100508.69;;;17.09
13304;BMP280;6720;51.958;4.540;2022-11-09T12:34:47;100516.09;;;16.84
13304;BMP280;6720;51.958;4.540;2022-11-09T12:37:25;100512.19;;;16.55
13304;BMP280;6720;51.958;4.540;2022-11-09T12:39:53;100538.91;;;16.29
13304;BMP280;6720;51.958;4.540;2022-11-09T12:42:20;100517.06;;;16.06
13304;BMP280;6720;51.958;4.540;2022-11-09T12:47:41;100503.53;;;16.52
13304;BMP280;6720;51.958;4.540;2022-11-09T12:50:13;100539.91;;;16.27
13304;BMP280;6720;51.958;4.540;2022-11-09T12:52:41;100536.53;;;16.62
13304;BMP280;6720;51.958;4.540;2022-11-09T12:55:12;100541.53;;;16.68
13304;BMP280;6720;51.958;4.540;2022-11-09T12:57:38;100546.88;;;17.39
13304;BMP280;6720;51.958;4.540;2022-11-09T13:03:03;100554.00;;;17.55
13304;BMP280;6720;51.958;4.540;2022-11-09T13:05:30;100570.81;;;17.19
13304;BMP280;6720;51.958;4.540;2022-11-09T13:08:01;100558.75;;;17.49
13304;BMP280;6720;51.958;4.540;2022-11-09T13:10:31;100562.13;;;16.80
13304;BMP280;6720;51.958;4.540;2022-11-09T13:13:22;100558.53;;;16.62
13304;BMP280;6720;51.958;4.540;2022-11-09T13:16:10;100565.63;;;16.42
13304;BMP280;6720;51.958;4.540;2022-11-09T13:23:44;100586.00;;;18.53
13304;BMP280;6720;51.958;4.540;2022-11-09T13:32:21;100591.09;;;18.06
13304;BMP280;6720;51.958;4.540;2022-11-09T13:34:57;100591.50;;;17.28
13304;BMP280;6720;51.958;4.540;2022-11-09T13:43:12;100599.31;;;16.57
13304;BMP280;6720;51.958;4.540;2022-11-09T13:45:43;100587.97;;;16.15
13304;BMP280;6720;51.958;4.540;2022-11-09T13:50:59;100595.69;;;15.38
13304;BMP280;6720;51.958;4.540;2022-11-09T13:56:14;100590.41;;;15.38
13304;BMP280;6720;51.958;4.540;2022-11-09T13:58:40;100619.00;;;15.25
13304;BMP280;6720;51.958;4.540;2022-11-09T14:03:50;100597.03;;;15.03
13304;BMP280;6720;51.958;4.540;2022-11-09T14:06:16;100611.88;;;15.06
13304;BMP280;6720;51.958;4.540;2022-11-09T14:08:42;100619.72;;;15.07
13304;BMP280;6720;51.958;4.540;2022-11-09T14:11:29;100616.69;;;15.18
13304;BMP280;6720;51.958;4.540;2022-11-09T14:14:21;100616.91;;;15.12
13304;BMP280;6720;51.958;4.540;2022-11-09T14:17:08;100620.31;;;14.92
13304;BMP280;6720;51.958;4.540;2022-11-09T14:22:18;100643.03;;;14.95
13304;BMP280;6720;51.958;4.540;2022-11-09T14:24:44;100634.56;;;15.10
13304;BMP280;6720;51.958;4.540;2022-11-09T14:29:45;100640.13;;;15.47
13304;BMP280;6720;51.958;4.540;2022-11-09T14:34:42;100648.22;;;15.19
13304;BMP280;6720;51.958;4.540;2022-11-09T14:37:07;100651.84;;;15.17
13304;BMP280;6720;51.958;4.540;2022-11-09T14:39:33;100674.41;;;15.02
13304;BMP280;6720;51.958;4.540;2022-11-09T14:41:58;100665.28;;;15.11
13304;BMP280;6720;51.958;4.540;2022-11-09T14:44:29;100681.38;;;15.03
13304;BMP280;6720;51.958;4.540;2022-11-09T14:46:59;100668.50;;;14.96
13304;BMP280;6720;51.958;4.540;2022-11-09T14:49:26;100680.19;;;14.89
13304;BMP280;6720;51.958;4.540;2022-11-09T14:51:52;100684.28;;;14.97
13304;BMP280;6720;51.958;4.540;2022-11-09T14:54:22;100702.78;;;14.96
13304;BMP280;6720;51.958;4.540;2022-11-09T14:56:48;100703.09;;;14.87
13304;BMP280;6720;51.958;4.540;2022-11-09T14:59:16;100705.72;;;14.87
13304;BMP280;6720;51.958;4.540;2022-11-09T15:01:56;100694.72;;;14.75
13304;BMP280;6720;51.958;4.540;2022-11-09T15:04:22;100735.06;;;14.77
13304;BMP280;6720;51.958;4.540;2022-11-09T15:06:52;100709.69;;;14.75
13304;BMP280;6720;51.958;4.540;2022-11-09T15:09:22;100717.50;;;14.78
13304;BMP280;6720;51.958;4.540;2022-11-09T15:11:50;100716.72;;;14.74
13304;BMP280;6720;51.958;4.540;2022-11-09T15:16:41;100732.63;;;14.71
13304;BMP280;6720;51.958;4.540;2022-11-09T15:19:30;100729.13;;;14.73
13304;BMP280;6720;51.958;4.540;2022-11-09T15:21:56;100730.00;;;14.71
13304;BMP280;6720;51.958;4.540;2022-11-09T15:24:24;100738.13;;;14.65
13304;BMP280;6720;51.958;4.540;2022-11-09T15:26:51;100744.19;;;14.67
13304;BMP280;6720;51.958;4.540;2022-11-09T15:29:36;100728.50;;;14.64
13304;BMP280;6720;51.958;4.540;2022-11-09T15:34:38;100745.22;;;14.63
13304;BMP280;6720;51.958;4.540;2022-11-09T15:37:28;100744.53;;;14.58
13304;BMP280;6720;51.958;4.540;2022-11-09T15:39:55;100761.38;;;14.54
13304;BMP280;6720;51.958;4.540;2022-11-09T15:42:20;100755.13;;;14.57
13304;BMP280;6720;51.958;4.540;2022-11-09T15:44:51;100762.97;;;14.58
13304;BMP280;6720;51.958;4.540;2022-11-09T15:47:23;100756.09;;;14.54
13304;BMP280;6720;51.958;4.540;2022-11-09T15:49:56;100763.91;;;14.57
13304;BMP280;6720;51.958;4.540;2022-11-09T15:52:21;100769.22;;;14.56
13304;BMP280;6720;51.958;4.540;2022-11-09T15:54:46;100765.56;;;14.60
13304;BMP280;6720;51.958;4.540;2022-11-09T15:57:14;100777.88;;;14.59
13304;BMP280;6720;51.958;4.540;2022-11-09T15:59:44;100779.72;;;14.57
13304;BMP280;6720;51.958;4.540;2022-11-09T16:02:09;100786.19;;;14.47
13304;BMP280;6720;51.958;4.540;2022-11-09T16:04:36;100797.47;;;14.51
13304;BMP280;6720;51.958;4.540;2022-11-09T16:07:01;100793.16;;;14.48
13304;BMP280;6720;51.958;4.540;2022-11-09T16:09:26;100793.22;;;14.47
13304;BMP280;6720;51.958;4.540;2022-11-09T16:11:52;100807.44;;;14.41
13304;BMP280;6720;51.958;4.540;2022-11-09T16:14:17;100805.72;;;14.40
13304;BMP280;6720;51.958;4.540;2022-11-09T16:16:44;100809.28;;;14.39